createdAt,value
2023-02-12T00:00:08.393Z,0.00
2023-02-12T00:00:54.249Z,0.00
2023-02-12T00:01:40.215Z,0.00
2023-02-12T00:02:26.283Z,0.00
2023-02-12T00:03:12.266Z,0.00
2023-02-12T00:03:58.342Z,0.00
2023-02-12T00:04:44.246Z,0.00
2023-02-12T00:05:30.249Z,0.00
2023-02-12T00:06:16.309Z,0.00
2023-02-12T00:07:02.258Z,0.00
2023-02-12T00:07:48.303Z,0.00
2023-02-12T00:08:34.234Z,0.00
2023-02-12T00:09:20.535Z,0.00
2023-02-12T00:10:06.223Z,0.00
2023-02-12T00:10:52.344Z,0.00
2023-02-12T00:11:38.409Z,0.00
2023-02-12T00:12:24.304Z,0.00
2023-02-12T00:13:10.292Z,0.00
2023-02-12T00:13:56.290Z,0.00
2023-02-12T00:14:42.329Z,0.00
2023-02-12T00:15:28.337Z,0.00
2023-02-12T00:16:14.495Z,0.00
2023-02-12T00:17:00.340Z,0.00
2023-02-12T00:17:46.369Z,0.00
2023-02-12T00:18:32.627Z,0.00
2023-02-12T00:19:18.380Z,0.00
2023-02-12T00:20:04.308Z,0.00
2023-02-12T00:20:50.725Z,0.00
2023-02-12T00:21:36.300Z,0.00
2023-02-12T00:22:22.381Z,0.00
2023-02-12T00:23:08.378Z,0.00
2023-02-12T00:23:54.337Z,0.00
2023-02-12T00:24:40.343Z,0.00
2023-02-12T00:25:26.359Z,0.00
2023-02-12T00:26:12.367Z,0.00
2023-02-12T00:26:58.549Z,0.00
2023-02-12T00:27:44.314Z,0.00
2023-02-12T00:28:30.415Z,0.00
2023-02-12T00:29:16.392Z,0.00
2023-02-12T00:30:02.510Z,0.00
2023-02-12T00:30:48.615Z,0.00
2023-02-12T00:31:34.373Z,0.00
2023-02-12T00:32:20.670Z,0.00
2023-02-12T00:33:06.511Z,0.00
2023-02-12T00:33:52.437Z,0.00
2023-02-12T00:34:38.509Z,0.00
2023-02-12T00:35:24.379Z,0.00
2023-02-12T00:36:10.434Z,0.00
2023-02-12T00:36:56.391Z,0.00
2023-02-12T00:37:42.422Z,0.00
2023-02-12T00:38:28.377Z,0.00
2023-02-12T00:39:14.371Z,0.00
2023-02-12T00:40:00.429Z,0.00
2023-02-12T00:40:46.435Z,0.00
2023-02-12T00:41:32.786Z,0.00
2023-02-12T00:42:18.532Z,0.00
2023-02-12T00:43:04.421Z,0.00
2023-02-12T00:43:50.723Z,0.00
2023-02-12T00:44:36.441Z,0.00
2023-02-12T00:45:22.514Z,0.00
2023-02-12T00:46:08.513Z,0.00
2023-02-12T00:46:54.498Z,0.00
2023-02-12T00:47:40.449Z,0.00
2023-02-12T00:48:26.513Z,0.00
2023-02-12T00:49:12.518Z,0.00
2023-02-12T00:49:58.417Z,0.00
2023-02-12T00:50:44.468Z,0.00
2023-02-12T00:51:30.475Z,0.00
2023-02-12T00:52:16.495Z,0.00
2023-02-12T00:53:02.485Z,0.00
2023-02-12T00:53:48.515Z,0.00
2023-02-12T00:54:34.510Z,0.00
2023-02-12T00:55:20.779Z,0.00
2023-02-12T00:56:06.469Z,0.00
2023-02-12T00:56:52.551Z,0.00
2023-02-12T00:57:38.575Z,0.00
2023-02-12T00:58:24.559Z,0.00
2023-02-12T00:59:10.568Z,0.00
2023-02-12T00:59:56.622Z,0.00
2023-02-12T01:00:42.656Z,0.00
2023-02-12T01:01:28.507Z,0.00
2023-02-12T01:02:14.570Z,0.00
2023-02-12T01:03:00.613Z,0.00
2023-02-12T01:03:46.591Z,0.00
2023-02-12T01:04:32.657Z,0.00
2023-02-12T01:05:18.646Z,0.00
2023-02-12T01:06:04.597Z,0.00
2023-02-12T01:06:50.780Z,0.00
2023-02-12T01:07:36.584Z,0.00
2023-02-12T01:08:22.606Z,0.00
2023-02-12T01:09:08.610Z,0.00
2023-02-12T01:09:54.604Z,0.00
2023-02-12T01:10:40.833Z,0.00
2023-02-12T01:11:26.796Z,0.00
2023-02-12T01:12:12.594Z,0.00
2023-02-12T01:12:58.712Z,0.00
2023-02-12T01:13:44.740Z,0.00
2023-02-12T01:14:30.684Z,0.00
2023-02-12T01:15:16.922Z,0.00
2023-02-12T01:16:02.794Z,0.00
2023-02-12T01:16:48.864Z,0.00
2023-02-12T01:17:34.682Z,0.00
2023-02-12T01:18:20.964Z,0.00
2023-02-12T01:19:06.715Z,0.00
2023-02-12T01:19:52.810Z,0.00
2023-02-12T01:20:38.768Z,0.00
2023-02-12T01:21:24.724Z,0.00
2023-02-12T01:22:10.800Z,0.00
2023-02-12T01:22:56.811Z,0.00
2023-02-12T01:23:42.795Z,0.00
2023-02-12T01:24:28.640Z,0.00
2023-02-12T01:25:14.696Z,0.00
2023-02-12T01:26:00.784Z,0.00
2023-02-12T01:26:46.772Z,0.00
2023-02-12T01:27:33.254Z,0.00
2023-02-12T01:28:18.801Z,0.00
2023-02-12T01:29:04.789Z,0.00
2023-02-12T01:29:50.957Z,0.00
2023-02-12T01:30:37.129Z,0.00
2023-02-12T01:31:23.056Z,0.00
2023-02-12T01:32:09.007Z,0.00
2023-02-12T01:32:54.854Z,0.00
2023-02-12T01:33:40.743Z,0.00
2023-02-12T01:34:26.771Z,0.00
2023-02-12T01:35:12.888Z,0.00
2023-02-12T01:35:58.752Z,0.00
2023-02-12T01:36:44.846Z,0.00
2023-02-12T01:37:30.758Z,0.00
2023-02-12T01:38:16.823Z,0.00
2023-02-12T01:39:03.082Z,0.00
2023-02-12T01:39:49.035Z,0.00
2023-02-12T01:40:34.838Z,0.00
2023-02-12T01:41:21.102Z,0.00
2023-02-12T01:42:06.865Z,0.00
2023-02-12T01:42:52.826Z,0.00
2023-02-12T01:43:38.938Z,0.00
2023-02-12T01:44:24.864Z,0.00
2023-02-12T01:45:11.081Z,0.00
2023-02-12T01:45:57.354Z,0.00
2023-02-12T01:46:42.967Z,0.00
2023-02-12T01:47:28.886Z,0.00
2023-02-12T01:48:14.788Z,0.00
2023-02-12T01:49:00.928Z,0.00
2023-02-12T01:49:46.977Z,0.00
2023-02-12T01:50:33.212Z,0.00
2023-02-12T01:51:18.904Z,0.00
2023-02-12T01:52:04.835Z,0.00
2023-02-12T01:52:51.135Z,0.00
2023-02-12T01:53:36.910Z,0.00
2023-02-12T01:54:22.829Z,0.00
2023-02-12T01:55:08.859Z,0.00
2023-02-12T01:55:55.448Z,0.00
2023-02-12T01:56:40.844Z,0.00
2023-02-12T01:57:26.892Z,0.00
2023-02-12T01:58:12.956Z,0.00
2023-02-12T01:58:58.922Z,0.00
2023-02-12T01:59:44.858Z,0.00
2023-02-12T02:00:31.127Z,0.00
2023-02-12T02:01:16.974Z,0.00
2023-02-12T02:02:02.961Z,0.00
2023-02-12T02:02:48.132Z,0.00
2023-02-12T02:03:34.985Z,0.00
2023-02-12T02:04:21.165Z,0.00
2023-02-12T02:05:06.926Z,0.00
2023-02-12T02:05:53.369Z,0.00
2023-02-12T02:06:39.300Z,0.00
2023-02-12T02:07:24.944Z,0.00
2023-02-12T02:08:11.096Z,0.00
2023-02-12T02:08:56.994Z,0.00
2023-02-12T02:09:42.983Z,0.00
2023-02-12T02:10:28.880Z,0.00
2023-02-12T02:11:14.959Z,0.00
2023-02-12T02:12:01.010Z,0.00
2023-02-12T02:12:47.021Z,0.00
2023-02-12T02:13:32.981Z,0.00
2023-02-12T02:14:19.142Z,0.00
2023-02-12T02:15:05.146Z,0.00
2023-02-12T02:15:51.335Z,0.00
2023-02-12T02:16:37.132Z,0.00
2023-02-12T02:17:23.017Z,0.00
2023-02-12T02:18:08.972Z,0.00
2023-02-12T02:18:55.080Z,0.00
2023-02-12T02:19:40.977Z,0.00
2023-02-12T02:20:27.058Z,0.00
2023-02-12T02:21:13.088Z,0.00
2023-02-12T02:21:58.967Z,0.00
2023-02-12T02:22:45.051Z,0.00
2023-02-12T02:23:31.116Z,0.00
2023-02-12T02:24:16.982Z,0.00
2023-02-12T02:25:03.161Z,0.00
2023-02-12T02:25:49.003Z,0.00
2023-02-12T02:26:34.958Z,0.00
2023-02-12T02:27:21.165Z,0.00
2023-02-12T02:28:07.143Z,0.00
2023-02-12T02:28:53.001Z,0.00
2023-02-12T02:29:39.183Z,0.00
2023-02-12T02:30:25.182Z,0.00
2023-02-12T02:31:11.058Z,0.00
2023-02-12T02:31:57.150Z,0.00
2023-02-12T02:32:43.139Z,0.00
2023-02-12T02:33:28.996Z,0.00
2023-02-12T02:34:15.036Z,0.00
2023-02-12T02:35:01.113Z,0.00
2023-02-12T02:35:47.184Z,0.00
2023-02-12T02:36:33.170Z,0.00
2023-02-12T02:37:19.121Z,0.00
2023-02-12T02:38:05.106Z,0.00
2023-02-12T02:38:51.267Z,0.00
2023-02-12T02:39:37.055Z,0.00
2023-02-12T02:40:23.106Z,0.00
2023-02-12T02:41:09.055Z,0.00
2023-02-12T02:41:55.121Z,0.00
2023-02-12T02:42:41.046Z,0.00
2023-02-12T02:43:27.113Z,0.00
2023-02-12T02:44:13.199Z,0.00
2023-02-12T02:44:59.063Z,0.00
2023-02-12T02:45:45.225Z,0.00
2023-02-12T02:46:31.140Z,0.00
2023-02-12T02:47:17.279Z,0.00
2023-02-12T02:48:03.179Z,0.00
2023-02-12T02:48:49.112Z,0.00
2023-02-12T02:49:35.098Z,0.00
2023-02-12T02:50:21.116Z,0.00
2023-02-12T02:51:07.406Z,0.00
2023-02-12T02:51:53.276Z,0.00
2023-02-12T02:52:39.356Z,0.00
2023-02-12T02:53:25.346Z,0.00
2023-02-12T02:54:11.129Z,0.00
2023-02-12T02:54:57.225Z,0.00
2023-02-12T02:55:43.196Z,0.00
2023-02-12T02:56:29.147Z,0.00
2023-02-12T02:57:15.181Z,0.00
2023-02-12T02:58:01.138Z,0.00
2023-02-12T02:58:47.275Z,0.00
2023-02-12T02:59:33.183Z,0.00
2023-02-12T03:00:19.318Z,0.00
2023-02-12T03:01:05.361Z,0.00
2023-02-12T03:01:51.305Z,0.00
2023-02-12T03:02:37.354Z,0.00
2023-02-12T03:03:23.224Z,0.00
2023-02-12T03:04:09.248Z,0.00
2023-02-12T03:04:55.274Z,0.00
2023-02-12T03:05:41.231Z,0.00
2023-02-12T03:06:27.128Z,0.00
2023-02-12T03:07:13.195Z,0.00
2023-02-12T03:07:59.268Z,0.00
2023-02-12T03:08:45.287Z,0.00
2023-02-12T03:09:31.211Z,0.00
2023-02-12T03:10:17.315Z,0.00
2023-02-12T03:11:03.350Z,0.00
2023-02-12T03:11:49.245Z,0.00
2023-02-12T03:12:35.278Z,0.00
2023-02-12T03:13:21.379Z,0.00
2023-02-12T03:14:07.315Z,0.00
2023-02-12T03:14:53.519Z,0.00
2023-02-12T03:15:39.415Z,0.00
2023-02-12T03:16:25.353Z,0.00
2023-02-12T03:17:11.423Z,0.00
2023-02-12T03:17:57.338Z,0.00
2023-02-12T03:18:43.301Z,0.00
2023-02-12T03:19:29.330Z,0.00
2023-02-12T03:20:15.246Z,0.00
2023-02-12T03:21:01.299Z,0.00
2023-02-12T03:21:47.447Z,0.00
2023-02-12T03:22:33.366Z,0.00
2023-02-12T03:23:19.391Z,0.00
2023-02-12T03:24:05.316Z,0.00
2023-02-12T03:24:51.343Z,0.00
2023-02-12T03:25:37.256Z,0.00
2023-02-12T03:26:23.413Z,0.00
2023-02-12T03:27:09.359Z,0.00
2023-02-12T03:27:55.411Z,0.00
2023-02-12T03:28:41.286Z,0.00
2023-02-12T03:29:27.359Z,0.00
2023-02-12T03:30:13.383Z,0.00
2023-02-12T03:30:59.409Z,0.00
2023-02-12T03:31:45.363Z,0.00
2023-02-12T03:32:31.330Z,0.00
2023-02-12T03:33:17.399Z,0.00
2023-02-12T03:34:03.426Z,0.00
2023-02-12T03:34:49.367Z,0.00
2023-02-12T03:35:35.347Z,0.00
2023-02-12T03:36:21.461Z,0.00
2023-02-12T03:37:07.421Z,0.00
2023-02-12T03:37:53.435Z,0.00
2023-02-12T03:38:39.511Z,0.00
2023-02-12T03:39:25.431Z,0.00
2023-02-12T03:40:11.405Z,0.00
2023-02-12T03:40:57.387Z,0.00
2023-02-12T03:41:43.573Z,0.00
2023-02-12T03:42:29.450Z,0.00
2023-02-12T03:43:15.400Z,0.00
2023-02-12T03:44:01.313Z,0.00
2023-02-12T03:44:47.404Z,0.00
2023-02-12T03:45:33.542Z,0.00
2023-02-12T03:46:19.388Z,0.00
2023-02-12T03:47:05.398Z,0.00
2023-02-12T03:47:51.346Z,0.00
2023-02-12T03:48:37.356Z,0.00
2023-02-12T03:49:23.386Z,0.00
2023-02-12T03:50:09.325Z,0.00
2023-02-12T03:50:55.367Z,0.00
2023-02-12T03:51:41.328Z,0.00
2023-02-12T03:52:27.324Z,0.00
2023-02-12T03:53:13.390Z,0.00
2023-02-12T03:53:59.403Z,0.00
2023-02-12T03:54:45.363Z,0.00
2023-02-12T03:55:31.380Z,0.00
2023-02-12T03:56:17.378Z,0.00
2023-02-12T03:57:03.398Z,0.00
2023-02-12T03:57:49.366Z,0.00
2023-02-12T03:58:35.410Z,0.00
2023-02-12T03:59:21.382Z,0.00
2023-02-12T04:00:07.495Z,0.00
2023-02-12T04:00:56.471Z,0.00
2023-02-12T04:01:39.681Z,0.00
2023-02-12T04:02:25.366Z,0.00
2023-02-12T04:03:11.373Z,0.00
2023-02-12T04:03:57.416Z,0.00
2023-02-12T04:04:43.471Z,0.00
2023-02-12T04:05:29.438Z,0.00
2023-02-12T04:06:15.381Z,0.00
2023-02-12T04:07:01.384Z,0.00
2023-02-12T04:07:47.458Z,0.00
2023-02-12T04:08:33.483Z,0.00
2023-02-12T04:09:19.515Z,0.00
2023-02-12T04:10:05.478Z,0.00
2023-02-12T04:10:51.574Z,0.00
2023-02-12T04:11:37.427Z,0.00
2023-02-12T04:12:23.505Z,0.00
2023-02-12T04:13:09.549Z,0.00
2023-02-12T04:13:55.425Z,0.00
2023-02-12T04:14:41.440Z,0.00
2023-02-12T04:15:27.561Z,0.00
2023-02-12T04:16:13.495Z,0.00
2023-02-12T04:16:59.589Z,0.00
2023-02-12T04:17:45.457Z,0.00
2023-02-12T04:18:31.472Z,0.00
2023-02-12T04:19:17.542Z,0.00
2023-02-12T04:20:03.516Z,0.00
2023-02-12T04:20:49.481Z,0.00
2023-02-12T04:21:35.624Z,0.00
2023-02-12T04:22:21.458Z,0.00
2023-02-12T04:23:07.550Z,0.00
2023-02-12T04:23:53.613Z,0.00
2023-02-12T04:24:39.595Z,0.00
2023-02-12T04:25:25.591Z,0.00
2023-02-12T04:26:11.499Z,0.00
2023-02-12T04:26:57.617Z,0.00
2023-02-12T04:27:43.505Z,0.00
2023-02-12T04:28:29.554Z,0.00
2023-02-12T04:29:15.509Z,0.00
2023-02-12T04:30:02.062Z,0.00
2023-02-12T04:30:47.780Z,0.00
2023-02-12T04:31:33.797Z,0.00
2023-02-12T04:32:19.567Z,0.00
2023-02-12T04:33:05.688Z,0.00
2023-02-12T04:33:51.619Z,0.00
2023-02-12T04:34:37.606Z,0.00
2023-02-12T04:35:23.612Z,0.00
2023-02-12T04:36:09.527Z,0.00
2023-02-12T04:36:55.615Z,0.00
2023-02-12T04:37:41.577Z,0.00
2023-02-12T04:38:27.570Z,0.00
2023-02-12T04:39:13.551Z,0.00
2023-02-12T04:39:59.600Z,0.00
2023-02-12T04:40:45.581Z,0.00
2023-02-12T04:41:31.672Z,0.00
2023-02-12T04:42:17.645Z,0.00
2023-02-12T04:43:03.629Z,0.00
2023-02-12T04:43:49.587Z,0.00
2023-02-12T04:44:35.729Z,0.00
2023-02-12T04:45:21.683Z,0.00
2023-02-12T04:46:07.690Z,0.00
2023-02-12T04:46:53.703Z,0.00
2023-02-12T04:47:39.702Z,0.00
2023-02-12T04:48:25.672Z,0.00
2023-02-12T04:49:11.601Z,0.00
2023-02-12T04:49:57.702Z,0.00
2023-02-12T04:50:43.658Z,0.00
2023-02-12T04:51:29.596Z,0.00
2023-02-12T04:52:15.598Z,0.00
2023-02-12T04:53:01.655Z,0.00
2023-02-12T04:53:47.658Z,0.00
2023-02-12T04:54:33.678Z,0.00
2023-02-12T04:55:19.634Z,0.00
2023-02-12T04:56:05.686Z,0.00
2023-02-12T04:56:51.641Z,0.00
2023-02-12T04:57:37.748Z,0.00
2023-02-12T04:58:23.684Z,0.00
2023-02-12T04:59:09.677Z,0.00
2023-02-12T04:59:55.770Z,0.00
2023-02-12T05:00:41.820Z,0.00
2023-02-12T05:01:30.297Z,0.00
2023-02-12T05:02:13.652Z,0.00
2023-02-12T05:02:59.675Z,0.00
2023-02-12T05:03:45.689Z,0.00
2023-02-12T05:04:31.983Z,0.00
2023-02-12T05:05:17.819Z,0.00
2023-02-12T05:06:03.828Z,0.00
2023-02-12T05:06:49.711Z,0.00
2023-02-12T05:07:35.737Z,0.00
2023-02-12T05:08:21.712Z,0.00
2023-02-12T05:09:07.781Z,0.00
2023-02-12T05:09:53.769Z,0.00
2023-02-12T05:10:39.805Z,0.00
2023-02-12T05:11:25.770Z,0.00
2023-02-12T05:12:11.768Z,0.00
2023-02-12T05:12:57.760Z,0.00
2023-02-12T05:13:43.713Z,0.00
2023-02-12T05:14:29.811Z,0.00
2023-02-12T05:15:15.871Z,0.00
2023-02-12T05:16:01.843Z,0.00
2023-02-12T05:16:47.775Z,0.00
2023-02-12T05:17:33.788Z,0.00
2023-02-12T05:18:19.755Z,0.00
2023-02-12T05:19:05.788Z,0.00
2023-02-12T05:19:51.784Z,0.00
2023-02-12T05:20:37.828Z,0.00
2023-02-12T05:21:23.826Z,0.00
2023-02-12T05:22:09.753Z,0.00
2023-02-12T05:22:55.803Z,0.00
2023-02-12T05:23:41.762Z,0.00
2023-02-12T05:24:27.800Z,0.00
2023-02-12T05:25:13.824Z,0.00
2023-02-12T05:25:59.813Z,0.00
2023-02-12T05:26:45.781Z,0.00
2023-02-12T05:27:32.398Z,0.00
2023-02-12T05:28:17.920Z,0.00
2023-02-12T05:29:03.901Z,0.00
2023-02-12T05:29:49.888Z,0.00
2023-02-12T05:30:35.902Z,0.00
2023-02-12T05:31:21.942Z,0.00
2023-02-12T05:32:08.000Z,0.00
2023-02-12T05:32:53.841Z,0.00
2023-02-12T05:33:39.957Z,0.00
2023-02-12T05:34:25.837Z,0.00
2023-02-12T05:35:11.846Z,0.00
2023-02-12T05:35:57.899Z,0.00
2023-02-12T05:36:43.859Z,0.00
2023-02-12T05:37:29.871Z,0.00
2023-02-12T05:38:15.855Z,0.00
2023-02-12T05:39:01.843Z,0.00
2023-02-12T05:39:47.968Z,0.00
2023-02-12T05:40:33.939Z,0.00
2023-02-12T05:41:19.872Z,0.00
2023-02-12T05:42:05.913Z,0.00
2023-02-12T05:42:51.872Z,0.00
2023-02-12T05:43:37.904Z,0.00
2023-02-12T05:44:23.921Z,0.00
2023-02-12T05:45:09.948Z,0.00
2023-02-12T05:45:56.092Z,0.00
2023-02-12T05:46:41.860Z,0.00
2023-02-12T05:47:27.926Z,0.00
2023-02-12T05:48:13.940Z,0.00
2023-02-12T05:48:59.954Z,0.00
2023-02-12T05:49:45.932Z,0.00
2023-02-12T05:50:32.586Z,0.00
2023-02-12T05:51:17.982Z,0.00
2023-02-12T05:52:04.039Z,0.00
2023-02-12T05:52:49.908Z,0.00
2023-02-12T05:53:35.896Z,0.00
2023-02-12T05:54:22.042Z,0.00
2023-02-12T05:55:07.992Z,0.00
2023-02-12T05:55:54.396Z,0.00
2023-02-12T05:56:40.087Z,0.00
2023-02-12T05:57:25.981Z,0.00
2023-02-12T05:58:13.390Z,0.00
2023-02-12T05:58:57.994Z,0.00
2023-02-12T05:59:43.932Z,0.00
2023-02-12T06:00:30.130Z,0.00
2023-02-12T06:01:15.974Z,0.00
2023-02-12T06:02:02.050Z,0.00
2023-02-12T06:02:48.019Z,0.00
2023-02-12T06:03:34.354Z,0.00
2023-02-12T06:04:20.075Z,0.00
2023-02-12T06:05:06.017Z,0.00
2023-02-12T06:05:51.985Z,0.00
2023-02-12T06:06:38.048Z,0.00
2023-02-12T06:07:24.047Z,0.00
2023-02-12T06:08:09.984Z,0.00
2023-02-12T06:08:56.090Z,0.00
2023-02-12T06:09:42.063Z,0.00
2023-02-12T06:10:28.006Z,0.00
2023-02-12T06:11:14.024Z,0.00
2023-02-12T06:12:00.032Z,0.00
2023-02-12T06:12:46.029Z,0.00
2023-02-12T06:13:32.823Z,0.00
2023-02-12T06:14:18.115Z,0.00
2023-02-12T06:15:04.158Z,0.00
2023-02-12T06:15:50.093Z,0.00
2023-02-12T06:16:36.229Z,0.00
2023-02-12T06:17:22.038Z,0.00
2023-02-12T06:18:08.103Z,0.00
2023-02-12T06:18:54.062Z,0.00
2023-02-12T06:19:40.164Z,0.00
2023-02-12T06:20:26.052Z,0.00
2023-02-12T06:21:12.032Z,0.00
2023-02-12T06:21:58.426Z,0.00
2023-02-12T06:22:44.130Z,0.00
2023-02-12T06:23:30.115Z,0.00
2023-02-12T06:24:16.089Z,0.00
2023-02-12T06:25:02.164Z,0.00
2023-02-12T06:25:48.132Z,0.00
2023-02-12T06:26:34.162Z,0.00
2023-02-12T06:27:20.092Z,0.00
2023-02-12T06:28:06.247Z,0.00
2023-02-12T06:28:52.221Z,0.00
2023-02-12T06:29:38.132Z,0.00
2023-02-12T06:30:24.255Z,0.00
2023-02-12T06:31:10.250Z,0.00
2023-02-12T06:31:56.323Z,0.00
2023-02-12T06:32:42.114Z,0.00
2023-02-12T06:33:28.150Z,0.00
2023-02-12T06:34:14.090Z,0.00
2023-02-12T06:35:00.161Z,0.00
2023-02-12T06:35:46.105Z,0.00
2023-02-12T06:36:32.834Z,0.00
2023-02-12T06:37:18.174Z,0.00
2023-02-12T06:38:04.279Z,0.00
2023-02-12T06:38:50.093Z,0.00
2023-02-12T06:39:36.130Z,0.00
2023-02-12T06:40:22.187Z,0.00
2023-02-12T06:41:08.186Z,0.00
2023-02-12T06:41:54.253Z,0.00
2023-02-12T06:42:40.282Z,0.00
2023-02-12T06:43:26.181Z,0.00
2023-02-12T06:44:12.196Z,0.36
2023-02-12T06:44:58.233Z,0.36
2023-02-12T06:45:44.380Z,0.36
2023-02-12T06:46:30.356Z,0.36
2023-02-12T06:47:16.334Z,0.85
2023-02-12T06:48:02.365Z,1.71
2023-02-12T06:48:48.233Z,1.71
2023-02-12T06:49:34.316Z,2.08
2023-02-12T06:50:20.302Z,2.08
2023-02-12T06:51:06.289Z,1.22
2023-02-12T06:51:52.303Z,1.22
2023-02-12T06:52:38.331Z,1.71
2023-02-12T06:53:24.344Z,1.71
2023-02-12T06:54:10.306Z,1.22
2023-02-12T06:54:56.386Z,1.22
2023-02-12T06:55:42.372Z,2.08
2023-02-12T06:56:28.383Z,2.08
2023-02-12T06:57:14.308Z,2.57
2023-02-12T06:58:00.349Z,2.08
2023-02-12T06:58:46.342Z,2.94
2023-02-12T06:59:33.030Z,2.57
2023-02-12T07:00:18.379Z,2.08
2023-02-12T07:01:04.454Z,3.43
2023-02-12T07:01:50.377Z,2.57
2023-02-12T07:02:38.875Z,2.57
2023-02-12T07:03:22.372Z,2.94
2023-02-12T07:04:08.549Z,3.79
2023-02-12T07:04:54.408Z,2.94
2023-02-12T07:05:40.493Z,3.79
2023-02-12T07:06:26.419Z,3.43
2023-02-12T07:07:12.384Z,3.79
2023-02-12T07:07:58.471Z,4.28
2023-02-12T07:08:44.345Z,4.28
2023-02-12T07:09:30.383Z,3.79
2023-02-12T07:10:16.382Z,4.28
2023-02-12T07:11:02.461Z,5.14
2023-02-12T07:11:48.450Z,4.28
2023-02-12T07:12:34.450Z,3.43
2023-02-12T07:13:20.355Z,4.28
2023-02-12T07:14:06.368Z,4.28
2023-02-12T07:14:52.420Z,5.63
2023-02-12T07:15:38.472Z,5.99
2023-02-12T07:16:24.513Z,5.63
2023-02-12T07:17:10.494Z,5.63
2023-02-12T07:17:56.454Z,5.14
2023-02-12T07:18:42.459Z,5.63
2023-02-12T07:19:28.509Z,5.63
2023-02-12T07:20:14.437Z,5.63
2023-02-12T07:21:00.506Z,5.99
2023-02-12T07:21:46.471Z,6.85
2023-02-12T07:22:32.982Z,5.99
2023-02-12T07:23:18.413Z,6.85
2023-02-12T07:24:04.540Z,5.63
2023-02-12T07:24:50.439Z,6.85
2023-02-12T07:25:36.538Z,6.48
2023-02-12T07:26:22.545Z,5.63
2023-02-12T07:27:08.496Z,5.14
2023-02-12T07:27:54.532Z,4.77
2023-02-12T07:28:40.678Z,5.99
2023-02-12T07:29:26.579Z,5.63
2023-02-12T07:30:12.631Z,5.99
2023-02-12T07:30:58.518Z,5.63
2023-02-12T07:31:44.558Z,5.99
2023-02-12T07:32:30.552Z,6.48
2023-02-12T07:33:16.515Z,5.99
2023-02-12T07:34:02.550Z,5.99
2023-02-12T07:34:48.478Z,6.48
2023-02-12T07:35:34.557Z,6.48
2023-02-12T07:36:20.604Z,6.48
2023-02-12T07:37:06.529Z,6.85
2023-02-12T07:37:52.622Z,7.34
2023-02-12T07:38:38.480Z,6.85
2023-02-12T07:39:24.504Z,6.48
2023-02-12T07:40:10.541Z,7.34
2023-02-12T07:40:56.661Z,7.70
2023-02-12T07:41:42.567Z,6.85
2023-02-12T07:42:28.556Z,8.19
2023-02-12T07:43:14.541Z,8.19
2023-02-12T07:44:00.620Z,9.05
2023-02-12T07:44:46.619Z,9.54
2023-02-12T07:45:33.185Z,9.54
2023-02-12T07:46:18.640Z,9.54
2023-02-12T07:47:04.629Z,8.56
2023-02-12T07:47:50.582Z,8.56
2023-02-12T07:48:36.538Z,8.19
2023-02-12T07:49:22.622Z,8.19
2023-02-12T07:50:08.589Z,9.05
2023-02-12T07:50:54.595Z,9.54
2023-02-12T07:51:40.638Z,9.54
2023-02-12T07:52:26.537Z,9.54
2023-02-12T07:53:12.659Z,10.39
2023-02-12T07:53:58.561Z,9.91
2023-02-12T07:54:44.578Z,9.91
2023-02-12T07:55:30.734Z,10.39
2023-02-12T07:56:16.613Z,11.25
2023-02-12T07:57:02.704Z,12.11
2023-02-12T07:57:48.685Z,11.62
2023-02-12T07:58:34.665Z,12.11
2023-02-12T07:59:20.603Z,12.48
2023-02-12T08:00:06.671Z,12.11
2023-02-12T08:00:52.612Z,12.48
2023-02-12T08:01:38.682Z,13.33
2023-02-12T08:02:24.702Z,14.31
2023-02-12T08:03:10.657Z,13.82
2023-02-12T08:03:56.695Z,14.31
2023-02-12T08:04:42.829Z,15.17
2023-02-12T08:05:28.732Z,15.53
2023-02-12T08:06:14.707Z,15.17
2023-02-12T08:07:00.796Z,15.53
2023-02-12T08:07:46.697Z,15.17
2023-02-12T08:08:33.271Z,16.02
2023-02-12T08:09:18.617Z,16.39
2023-02-12T08:10:04.768Z,16.39
2023-02-12T08:10:50.959Z,16.39
2023-02-12T08:11:36.610Z,17.25
2023-02-12T08:12:22.711Z,17.73
2023-02-12T08:13:08.767Z,17.73
2023-02-12T08:13:54.779Z,18.11
2023-02-12T08:14:40.796Z,16.88
2023-02-12T08:15:26.710Z,16.88
2023-02-12T08:16:12.720Z,17.25
2023-02-12T08:16:58.938Z,18.11
2023-02-12T08:17:44.681Z,16.88
2023-02-12T08:18:30.870Z,16.88
2023-02-12T08:19:20.504Z,16.02
2023-02-12T08:20:02.776Z,15.17
2023-02-12T08:20:48.702Z,15.53
2023-02-12T08:21:34.759Z,14.68
2023-02-12T08:22:20.786Z,14.68
2023-02-12T08:23:06.704Z,14.68
2023-02-12T08:23:52.726Z,14.68
2023-02-12T08:24:38.763Z,14.31
2023-02-12T08:25:24.735Z,14.31
2023-02-12T08:26:10.727Z,14.68
2023-02-12T08:26:56.753Z,15.17
2023-02-12T08:27:42.862Z,14.68
2023-02-12T08:28:28.805Z,16.02
2023-02-12T08:29:14.763Z,15.17
2023-02-12T08:30:00.972Z,16.02
2023-02-12T08:30:46.803Z,15.17
2023-02-12T08:31:33.052Z,15.53
2023-02-12T08:32:18.749Z,15.53
2023-02-12T08:33:04.907Z,16.88
2023-02-12T08:33:51.133Z,18.11
2023-02-12T08:34:36.726Z,17.73
2023-02-12T08:35:22.814Z,19.08
2023-02-12T08:36:08.830Z,19.08
2023-02-12T08:36:54.784Z,19.45
2023-02-12T08:37:40.903Z,19.08
2023-02-12T08:38:26.773Z,19.45
2023-02-12T08:39:12.841Z,19.94
2023-02-12T08:39:58.866Z,21.65
2023-02-12T08:40:44.782Z,21.16
2023-02-12T08:41:30.788Z,22.87
2023-02-12T08:42:16.903Z,23.36
2023-02-12T08:43:02.895Z,22.87
2023-02-12T08:43:48.842Z,22.87
2023-02-12T08:44:34.844Z,22.02
2023-02-12T08:45:21.184Z,22.02
2023-02-12T08:46:06.850Z,21.65
2023-02-12T08:46:52.866Z,22.02
2023-02-12T08:47:38.812Z,23.85
2023-02-12T08:48:24.816Z,25.07
2023-02-12T08:49:10.871Z,25.94
2023-02-12T08:49:56.863Z,25.56
2023-02-12T08:50:42.839Z,26.42
2023-02-12T08:51:28.876Z,25.56
2023-02-12T08:52:14.888Z,25.07
2023-02-12T08:53:00.818Z,24.71
2023-02-12T08:53:46.885Z,24.71
2023-02-12T08:54:33.052Z,24.71
2023-02-12T08:55:18.842Z,25.07
2023-02-12T08:56:04.874Z,25.94
2023-02-12T08:56:51.112Z,27.65
2023-02-12T08:57:36.831Z,27.65
2023-02-12T08:58:22.897Z,27.65
2023-02-12T08:59:08.897Z,28.14
2023-02-12T08:59:54.900Z,27.65
2023-02-12T09:00:41.057Z,27.28
2023-02-12T09:01:26.987Z,28.14
2023-02-12T09:02:12.992Z,28.63
2023-02-12T09:02:58.963Z,28.63
2023-02-12T09:03:44.920Z,28.63
2023-02-12T09:04:30.974Z,28.99
2023-02-12T09:05:16.962Z,29.48
2023-02-12T09:06:03.134Z,29.85
2023-02-12T09:06:49.010Z,29.85
2023-02-12T09:07:34.901Z,30.34
2023-02-12T09:08:21.220Z,29.85
2023-02-12T09:09:06.866Z,29.48
2023-02-12T09:09:52.953Z,29.48
2023-02-12T09:10:38.925Z,29.48
2023-02-12T09:11:24.914Z,29.48
2023-02-12T09:12:10.954Z,29.85
2023-02-12T09:12:56.964Z,30.34
2023-02-12T09:13:42.977Z,30.70
2023-02-12T09:14:28.927Z,30.70
2023-02-12T09:15:15.018Z,31.19
2023-02-12T09:16:00.987Z,31.19
2023-02-12T09:16:47.083Z,31.56
2023-02-12T09:17:33.211Z,32.05
2023-02-12T09:18:18.974Z,32.05
2023-02-12T09:19:04.967Z,32.90
2023-02-12T09:19:51.321Z,33.39
2023-02-12T09:20:36.973Z,34.25
2023-02-12T09:21:22.989Z,34.62
2023-02-12T09:22:09.044Z,35.48
2023-02-12T09:22:54.961Z,34.62
2023-02-12T09:23:41.083Z,35.48
2023-02-12T09:24:27.059Z,35.97
2023-02-12T09:25:12.985Z,35.11
2023-02-12T09:25:59.129Z,34.62
2023-02-12T09:26:44.977Z,35.11
2023-02-12T09:27:31.406Z,35.48
2023-02-12T09:28:17.070Z,35.97
2023-02-12T09:29:03.168Z,35.48
2023-02-12T09:29:49.000Z,35.11
2023-02-12T09:30:35.186Z,35.11
2023-02-12T09:31:21.543Z,35.11
2023-02-12T09:32:07.156Z,34.62
2023-02-12T09:32:53.068Z,34.25
2023-02-12T09:33:39.071Z,35.48
2023-02-12T09:34:25.038Z,35.48
2023-02-12T09:35:11.054Z,36.82
2023-02-12T09:35:57.314Z,36.33
2023-02-12T09:36:43.058Z,36.33
2023-02-12T09:37:29.002Z,36.82
2023-02-12T09:38:15.084Z,36.82
2023-02-12T09:39:01.179Z,37.19
2023-02-12T09:39:49.029Z,37.68
2023-02-12T09:40:33.288Z,37.19
2023-02-12T09:41:19.172Z,37.19
2023-02-12T09:42:05.148Z,38.17
2023-02-12T09:42:51.382Z,38.53
2023-02-12T09:43:37.118Z,39.02
2023-02-12T09:44:23.212Z,39.39
2023-02-12T09:45:09.231Z,39.39
2023-02-12T09:45:55.581Z,39.02
2023-02-12T09:46:41.313Z,39.88
2023-02-12T09:47:27.104Z,40.73
2023-02-12T09:48:13.077Z,39.88
2023-02-12T09:48:59.116Z,40.24
2023-02-12T09:49:45.152Z,39.39
2023-02-12T09:50:31.223Z,39.02
2023-02-12T09:51:17.161Z,40.24
2023-02-12T09:52:03.197Z,40.24
2023-02-12T09:52:49.083Z,39.88
2023-02-12T09:53:35.141Z,39.02
2023-02-12T09:54:21.397Z,38.53
2023-02-12T09:55:07.169Z,38.53
2023-02-12T09:55:53.430Z,38.53
2023-02-12T09:56:39.130Z,39.02
2023-02-12T09:57:25.170Z,39.39
2023-02-12T09:58:11.109Z,38.53
2023-02-12T09:58:57.146Z,39.02
2023-02-12T09:59:43.243Z,38.17
2023-02-12T10:00:29.240Z,38.53
2023-02-12T10:01:15.215Z,38.53
2023-02-12T10:02:01.130Z,39.39
2023-02-12T10:02:47.234Z,39.88
2023-02-12T10:03:33.297Z,40.24
2023-02-12T10:04:19.328Z,40.24
2023-02-12T10:05:05.261Z,41.10
2023-02-12T10:05:51.531Z,40.73
2023-02-12T10:06:37.195Z,41.59
2023-02-12T10:07:23.268Z,41.96